aviador You're here:

KRKR Decoded Metar

POTEAU (R KERR) in OK, USA
Report Time2018-01-18 11:35:00
UTC Time2018-01-18 11:47:41
Flight Rules vfr VFR
WindCalm
Visibility9999 m
Phenomena:N/A
Clouds:N/A
Expected CloudBase > 400 ft AGL from Temp-Dew spread
CeilingNone
Temp-12°C (ISA -26)
Dew Point-13°C (92% RH)
AAT-15.3°C
QNH1034 hPa
Density Alt-3,510 ft
Elevation453 ft
Report Wrong Elevation
Raw Report
KRKR 181135Z AUTO 00000KT 10SM CLR M12/M13 A3053 RMK AO2=

Extra information for KRKR:More info

Metar Taf Metar & Taf Last 4 Metars F.Rules Stats Wind Profile Meteogram Temp Stats Airport Information Weather charts Add Link Nearby VenuesMetar ALERT Operation Metar Decoded Social comments

AIRNAV info for KRKR